Time;durP1;ratioP1;P1;durP2;ratioP2;P2;SDS_P1;SDS_P2;PMS_P1;PMS_P2;Temp;Humidity;BMP_temperature;BMP_pressure;BME280_temperature;BME280_humidity;BME280_pressure;Samples;Min_cycle;Max_cycle;Signal;HPM_P1;HPM_P2
2023/11/03 00:01:10;;;;;;;9.50;5.85;;;;;;;15.37;100.00;101009.53;5007084;28;20120;-70
2023/11/03 00:03:36;;;;;;;10.80;5.80;;;;;;;15.17;100.00;100961.44;5009575;28;20113;-70
2023/11/03 00:06:03;;;;;;;8.45;6.10;;;;;;;15.28;100.00;100977.34;5009208;28;20029;-70
2023/11/03 00:08:30;;;;;;;11.52;6.18;;;;;;;15.57;100.00;101002.91;5009221;28;20091;-70
2023/11/03 00:10:57;;;;;;;12.65;6.38;;;;;;;15.47;100.00;101011.78;5009166;28;20484;-69
2023/11/03 00:13:23;;;;;;;10.10;6.43;;;;;;;15.40;100.00;101010.28;5007423;28;20045;-71
2023/11/03 00:15:48;;;;;;;11.18;6.07;;;;;;;15.39;100.00;101026.53;5009592;28;20037;-70
2023/11/03 00:18:14;;;;;;;9.55;6.20;;;;;;;15.46;100.00;100997.31;5007059;28;20112;-70
2023/11/03 00:20:40;;;;;;;11.23;6.18;;;;;;;15.53;100.00;101024.41;5009171;28;20485;-70
2023/11/03 00:23:07;;;;;;;9.57;5.57;;;;;;;15.51;100.00;101026.19;5009334;28;20065;-70
2023/11/03 00:25:32;;;;;;;11.52;7.00;;;;;;;15.61;100.00;101035.25;5008854;28;20034;-70
2023/11/03 00:27:58;;;;;;;8.55;5.82;;;;;;;15.62;100.00;101038.66;5008460;28;20034;-70
2023/11/03 00:30:23;;;;;;;9.18;5.82;;;;;;;15.17;100.00;100950.38;5008779;28;20125;-70
2023/11/03 00:32:49;;;;;;;10.15;5.82;;;;;;;15.69;100.00;101036.75;5008769;28;20477;-70
2023/11/03 00:35:14;;;;;;;7.32;5.47;;;;;;;15.47;100.00;100988.72;5008847;28;20116;-70
2023/11/03 00:37:40;;;;;;;9.43;6.47;;;;;;;15.68;100.00;101030.78;5008769;28;20479;-70
2023/11/03 00:40:11;;;;;;;9.52;5.90;;;;;;;15.42;100.00;100984.63;5008930;28;20049;-70
2023/11/03 00:42:37;;;;;;;9.68;6.30;;;;;;;15.60;100.00;101013.09;5008701;28;20092;-70
2023/11/03 00:45:05;;;;;;;9.15;6.25;;;;;;;15.16;100.00;100962.34;5007123;28;20132;-70
2023/11/03 00:47:30;;;;;;;12.07;6.30;;;;;;;15.23;100.00;100999.69;5008675;28;20087;-70
2023/11/03 00:49:56;;;;;;;9.00;6.15;;;;;;;15.08;100.00;100982.22;5007063;28;20034;-70
2023/11/03 00:52:22;;;;;;;9.10;5.20;;;;;;;14.77;100.00;100920.03;5007682;28;20135;-70
2023/11/03 00:54:47;;;;;;;7.25;5.32;;;;;;;15.39;100.00;101031.66;5006509;28;20037;-71
2023/11/03 00:57:13;;;;;;;7.72;5.07;;;;;;;15.36;100.00;101018.94;5008066;28;20121;-71
2023/11/03 00:59:39;;;;;;;9.15;4.75;;;;;;;15.44;100.00;101057.19;5007980;28;20164;-70
2023/11/03 01:02:05;;;;;;;6.20;4.57;;;;;;;15.32;100.00;101030.16;5007831;28;20026;-70
2023/11/03 01:04:31;;;;;;;7.65;4.20;;;;;;;15.03;100.00;100971.31;5008143;28;20470;-71
2023/11/03 01:06:56;;;;;;;8.30;4.30;;;;;;;15.55;100.00;101055.97;5008538;28;20112;-71
2023/11/03 01:09:22;;;;;;;8.20;4.80;;;;;;;15.12;100.00;100983.81;5007891;28;20087;-70
2023/11/03 01:11:47;;;;;;;6.53;4.22;;;;;;;15.58;100.00;101075.53;5007668;28;20096;-71
2023/11/03 01:14:13;;;;;;;6.38;4.60;;;;;;;15.00;100.00;101007.22;5016581;28;20076;-71
2023/11/03 01:16:38;;;;;;;8.48;4.80;;;;;;;15.47;100.00;101070.72;5020131;28;20481;-70
2023/11/03 01:19:04;;;;;;;8.70;5.38;;;;;;;15.11;100.00;101022.28;5021095;28;20037;-70
2023/11/03 01:21:33;;;;;;;10.77;5.20;;;;;;;15.46;100.00;101071.63;5017931;28;20156;-71
2023/11/03 01:24:00;;;;;;;9.13;5.50;;;;;;;14.92;100.00;101004.06;5013780;28;20084;-71
2023/11/03 01:26:25;;;;;;;7.38;5.18;;;;;;;14.91;100.00;100989.59;5007471;28;20030;-71
2023/11/03 01:28:54;;;;;;;9.45;5.25;;;;;;;15.08;100.00;101014.69;5017966;28;20419;-71
2023/11/03 01:31:21;;;;;;;10.05;5.50;;;;;;;14.83;100.00;101006.91;5017614;28;20091;-71
2023/11/03 01:33:48;;;;;;;7.30;4.93;;;;;;;14.84;100.00;101048.69;5006680;28;20124;-73
2023/11/03 01:36:15;;;;;;;8.27;4.88;;;;;;;15.06;100.00;101127.44;5008900;28;20029;-70
2023/11/03 01:38:40;;;;;;;6.45;5.10;;;;;;;14.70;100.00;101088.31;5015558;28;20091;-70
2023/11/03 01:41:07;;;;;;;8.23;5.07;;;;;;;14.90;100.00;101112.53;5019869;28;20700;-69
2023/11/03 01:43:35;;;;;;;7.15;4.90;;;;;;;14.88;100.00;101111.72;5015490;28;20045;-70
2023/11/03 01:46:02;;;;;;;8.30;5.10;;;;;;;14.87;100.00;101116.03;5018392;28;20033;-70
2023/11/03 01:48:31;;;;;;;8.25;5.18;;;;;;;14.97;100.00;101119.19;5019662;28;20053;-70
2023/11/03 01:50:59;;;;;;;10.38;5.25;;;;;;;14.70;100.00;101082.34;5015243;28;20034;-71
2023/11/03 01:53:28;;;;;;;9.80;5.20;;;;;;;15.39;100.00;101179.47;5017155;28;20032;-70
2023/11/03 01:55:54;;;;;;;8.73;5.07;;;;;;;15.36;100.00;101182.97;5014874;28;20107;-71
2023/11/03 01:58:20;;;;;;;8.55;5.22;;;;;;;15.24;100.00;101185.00;5016694;28;20087;-72
2023/11/03 02:00:46;;;;;;;8.48;5.38;;;;;;;15.03;100.00;101163.41;5006285;28;20032;-72
2023/11/03 02:03:12;;;;;;;9.55;5.50;;;;;;;15.16;100.00;101192.06;5019211;28;20045;-72
2023/11/03 02:05:38;;;;;;;10.55;6.05;;;;;;;15.31;100.00;101215.53;5007045;28;20048;-71
2023/11/03 02:08:04;;;;;;;9.90;5.57;;;;;;;14.81;100.00;101143.50;5007874;28;20029;-72
2023/11/03 02:10:30;;;;;;;7.93;5.15;;;;;;;14.88;100.00;101179.16;5018908;28;20051;-71
2023/11/03 02:12:55;;;;;;;9.63;5.50;;;;;;;15.10;100.00;101215.28;5020473;28;20436;-70
2023/11/03 02:15:21;;;;;;;9.27;5.95;;;;;;;14.49;100.00;101119.59;5007615;28;20033;-70
2023/11/03 02:17:48;;;;;;;8.75;5.75;;;;;;;14.87;100.00;101199.69;5014976;28;20034;-71
2023/11/03 02:20:13;;;;;;;11.65;6.18;;;;;;;14.61;100.00;101165.38;5005813;28;20061;-70
2023/11/03 02:22:38;;;;;;;9.38;5.97;;;;;;;15.24;100.00;101244.78;5017024;28;20476;-70
2023/11/03 02:25:04;;;;;;;11.35;6.78;;;;;;;14.22;100.00;101093.84;5021653;28;20060;-70
2023/11/03 02:27:30;;;;;;;10.07;6.50;;;;;;;15.02;100.00;101237.69;5015290;28;20423;-71
2023/11/03 02:29:56;;;;;;;9.35;6.97;;;;;;;14.65;100.00;101173.78;5012095;28;20504;-70
2023/11/03 02:32:22;;;;;;;9.98;6.30;;;;;;;15.23;100.00;101257.66;5024102;28;20029;-70
2023/11/03 02:34:47;;;;;;;11.00;6.68;;;;;;;15.00;100.00;101232.63;5020140;28;20037;-71
2023/11/03 02:37:13;;;;;;;11.13;6.68;;;;;;;15.06;100.00;101235.03;5021087;28;20037;-70
2023/11/03 02:39:40;;;;;;;12.77;7.13;;;;;;;15.09;100.00;101250.31;5014263;28;20033;-71
2023/11/03 02:42:06;;;;;;;11.80;7.53;;;;;;;15.08;100.00;101252.91;5025826;28;20116;-71
2023/11/03 02:44:32;;;;;;;12.43;7.88;;;;;;;14.87;100.00;101238.94;5024449;28;20531;-71
2023/11/03 02:46:58;;;;;;;11.20;7.55;;;;;;;14.94;100.00;101239.59;5019580;28;20489;-70
2023/11/03 02:49:24;;;;;;;10.52;7.93;;;;;;;14.62;100.00;101174.69;5009900;28;20029;-71
2023/11/03 02:51:49;;;;;;;11.63;7.75;;;;;;;15.15;100.00;101255.25;5012422;28;20033;-70
2023/11/03 02:54:15;;;;;;;11.27;7.72;;;;;;;14.71;100.00;101191.56;5013337;28;20044;-70
2023/11/03 02:56:40;;;;;;;11.73;8.43;;;;;;;14.75;100.00;101223.88;5019574;28;20033;-71
2023/11/03 02:59:06;;;;;;;13.15;7.82;;;;;;;14.84;100.00;101222.78;5010739;28;20038;-71
2023/11/03 03:01:32;;;;;;;12.38;8.02;;;;;;;14.33;100.00;101164.34;5017663;28;20460;-69
2023/11/03 03:03:58;;;;;;;12.70;8.20;;;;;;;14.64;100.00;101210.50;5022204;28;20033;-70
2023/11/03 03:06:23;;;;;;;14.73;8.10;;;;;;;14.83;100.00;101267.22;5023435;28;20519;-71
2023/11/03 03:08:49;;;;;;;10.80;8.27;;;;;;;14.56;100.00;101233.72;5021076;28;20030;-69
2023/11/03 03:11:15;;;;;;;11.98;8.02;;;;;;;14.87;100.00;101277.34;5022747;28;20030;-71
2023/11/03 03:13:41;;;;;;;11.82;8.70;;;;;;;14.87;100.00;101253.47;5021216;28;20041;-71
2023/11/03 03:16:09;;;;;;;13.52;8.75;;;;;;;14.51;100.00;101193.78;5022139;28;20124;-70
2023/11/03 03:18:34;;;;;;;9.65;7.85;;;;;;;14.98;100.00;101251.47;5003074;28;20030;-72
2023/11/03 03:20:59;;;;;;;13.15;8.15;;;;;;;14.46;100.00;101129.09;5009996;28;20092;-71
2023/11/03 03:23:25;;;;;;;12.10;7.85;;;;;;;14.80;100.00;101224.59;5019944;28;20053;-70
2023/11/03 03:25:51;;;;;;;12.10;8.25;;;;;;;14.78;100.00;101239.16;5020487;28;20117;-71
2023/11/03 03:28:16;;;;;;;11.07;7.72;;;;;;;14.44;100.00;101166.66;5023358;28;20042;-71
2023/11/03 03:30:42;;;;;;;11.18;8.10;;;;;;;14.76;100.00;101218.72;5027740;28;20040;-70
2023/11/03 03:33:08;;;;;;;12.43;7.70;;;;;;;14.89;100.00;101239.75;5026794;28;20025;-70
2023/11/03 03:35:34;;;;;;;10.25;7.88;;;;;;;14.80;100.00;101208.41;5011834;28;20038;-70
2023/11/03 03:38:00;;;;;;;16.88;8.40;;;;;;;14.92;100.00;101236.25;5017155;28;20069;-70
2023/11/03 03:40:25;;;;;;;15.90;8.68;;;;;;;15.01;100.00;101239.44;5007542;28;20057;-70
2023/11/03 03:42:50;;;;;;;16.50;8.65;;;;;;;14.66;100.00;101188.25;5020161;28;20049;-70
2023/11/03 03:45:16;;;;;;;14.15;9.77;;;;;;;14.87;100.00;101241.50;5013476;28;20525;-70
2023/11/03 03:47:43;;;;;;;14.90;9.93;;;;;;;14.72;100.00;101208.59;5017608;28;20037;-71
2023/11/03 03:50:08;;;;;;;13.27;9.27;;;;;;;14.84;100.00;101218.53;5005362;28;20119;-70
2023/11/03 03:52:34;;;;;;;13.07;8.98;;;;;;;14.58;100.00;101170.53;5008268;28;20495;-71
2023/11/03 03:54:59;;;;;;;17.85;9.23;;;;;;;14.74;100.00;101201.72;5011248;28;20116;-73
2023/11/03 03:57:25;;;;;;;12.25;8.77;;;;;;;14.86;100.00;101219.31;5018704;28;20029;-70
2023/11/03 03:59:51;;;;;;;15.07;9.30;;;;;;;14.37;100.00;101140.38;5022317;28;20124;-72
2023/11/03 04:02:16;;;;;;;16.70;9.52;;;;;;;14.40;100.00;101160.75;5012376;28;20033;-71
2023/11/03 04:04:43;;;;;;;18.45;10.68;;;;;;;14.72;100.00;101222.25;5005567;28;20038;-70
2023/11/03 04:07:09;;;;;;;16.23;9.98;;;;;;;14.33;100.00;101155.84;5009458;28;20029;-70
2023/11/03 04:09:37;;;;;;;14.27;10.27;;;;;;;14.83;100.00;101216.00;5020340;28;20600;-70
2023/11/03 04:12:03;;;;;;;17.25;10.10;;;;;;;14.26;100.00;101139.75;5004085;28;20045;-71
2023/11/03 04:14:28;;;;;;;14.75;9.88;;;;;;;14.57;100.00;101153.53;5018061;28;20412;-72
2023/11/03 04:16:53;;;;;;;15.95;11.05;;;;;;;14.33;100.00;101136.22;5018251;28;20527;-72
2023/11/03 04:19:19;;;;;;;19.67;11.90;;;;;;;14.65;100.00;101202.81;5016828;28;20129;-71
2023/11/03 04:21:44;;;;;;;21.13;11.60;;;;;;;14.40;100.00;101137.72;5015003;28;20113;-70
2023/11/03 04:24:10;;;;;;;19.98;12.25;;;;;;;14.32;100.00;101172.91;5019923;28;20030;-72
2023/11/03 04:26:35;;;;;;;20.88;12.38;;;;;;;14.51;100.00;101170.75;5021029;28;20464;-71
2023/11/03 04:29:01;;;;;;;18.77;12.82;;;;;;;14.69;100.00;101209.53;5009417;28;20076;-71
2023/11/03 04:31:26;;;;;;;17.92;12.40;;;;;;;14.84;100.00;101233.03;5008736;28;20076;-70
2023/11/03 04:33:52;;;;;;;18.15;13.23;;;;;;;14.78;100.00;101228.91;5020658;28;20415;-70
2023/11/03 04:36:18;;;;;;;21.38;13.65;;;;;;;14.85;100.00;101244.97;5017727;28;20120;-69
2023/11/03 04:38:43;;;;;;;21.85;13.63;;;;;;;14.87;100.00;101233.81;5014007;28;20533;-69
2023/11/03 04:41:09;;;;;;;16.48;12.68;;;;;;;14.57;100.00;101179.13;5017097;28;20503;-72
2023/11/03 04:43:38;;;;;;;19.30;13.30;;;;;;;14.62;100.00;101212.25;5000176;28;20076;-70
2023/11/03 04:46:05;;;;;;;18.52;12.75;;;;;;;14.90;100.00;101230.31;5008607;28;20052;-71
2023/11/03 04:48:31;;;;;;;16.20;12.63;;;;;;;14.93;100.00;101241.34;5005031;28;20416;-70
2023/11/03 04:50:57;;;;;;;19.52;13.07;;;;;;;14.61;100.00;101221.69;5020141;28;20037;-70
2023/11/03 04:53:23;;;;;;;19.20;12.73;;;;;;;14.70;100.00;101225.72;5016643;28;20022;-71
2023/11/03 04:55:48;;;;;;;17.67;13.00;;;;;;;14.73;100.00;101251.25;5009665;28;20104;-73
2023/11/03 04:58:18;;;;;;;18.33;13.00;;;;;;;14.72;100.00;101267.47;5018940;28;20123;-72
2023/11/03 05:00:45;;;;;;;20.40;13.35;;;;;;;14.60;100.00;101230.22;5008169;28;20041;-71
2023/11/03 05:03:11;;;;;;;19.13;13.50;;;;;;;14.36;100.00;101158.34;5014129;28;20029;-73
2023/11/03 05:05:37;;;;;;;22.67;13.23;;;;;;;14.60;100.00;101214.84;5016876;28;20091;-71
2023/11/03 05:08:02;;;;;;;19.38;12.70;;;;;;;14.71;100.00;101192.41;5019013;28;20112;-72
2023/11/03 05:10:28;;;;;;;18.83;13.13;;;;;;;14.69;100.00;101144.69;5003958;28;20077;-71
2023/11/03 05:12:53;;;;;;;22.00;12.98;;;;;;;14.51;100.00;101125.53;5018234;28;20109;-72
2023/11/03 05:15:19;;;;;;;19.88;12.88;;;;;;;14.64;100.00;101167.81;5019359;28;20076;-72
2023/11/03 05:17:44;;;;;;;18.60;12.52;;;;;;;14.70;100.00;101160.00;5009585;28;20087;-73
2023/11/03 05:20:11;;;;;;;18.55;13.10;;;;;;;14.35;100.00;101105.47;5019121;28;20496;-72
2023/11/03 05:22:36;;;;;;;20.63;12.20;;;;;;;14.84;100.00;101143.41;5008846;28;20036;-72
2023/11/03 05:25:02;;;;;;;21.50;13.40;;;;;;;14.65;100.00;101120.88;5019977;28;20029;-71
2023/11/03 05:27:27;;;;;;;22.30;13.73;;;;;;;14.34;100.00;101073.09;5021456;28;20033;-72
2023/11/03 05:29:53;;;;;;;22.30;14.00;;;;;;;14.56;100.00;101130.50;5013876;28;20463;-72
2023/11/03 05:32:18;;;;;;;19.75;14.18;;;;;;;14.98;100.00;101200.22;5004695;28;20030;-74
2023/11/03 05:34:44;;;;;;;20.98;14.40;;;;;;;14.55;100.00;101139.06;5018209;28;20094;-72
2023/11/03 05:37:10;;;;;;;24.25;15.00;;;;;;;14.38;100.00;101125.88;5016609;28;20036;-73
2023/11/03 05:39:37;;;;;;;23.40;14.80;;;;;;;14.58;100.00;101142.38;5014526;28;20036;-73
2023/11/03 05:42:04;;;;;;;22.48;13.02;;;;;;;15.08;100.00;101118.00;5022402;28;20034;-75
2023/11/03 05:44:30;;;;;;;22.15;14.95;;;;;;;15.52;100.00;101152.63;5008838;28;20376;-72
2023/11/03 05:46:56;;;;;;;23.02;15.48;;;;;;;15.19;100.00;101161.25;5016967;28;20026;-72
2023/11/03 05:49:21;;;;;;;24.95;15.75;;;;;;;14.91;100.00;101127.03;5006512;28;20116;-72
2023/11/03 05:51:47;;;;;;;21.63;15.30;;;;;;;14.99;100.00;101145.59;5013718;28;20034;-72
2023/11/03 05:54:13;;;;;;;23.50;16.00;;;;;;;14.89;100.00;101150.13;5008191;28;20037;-72
2023/11/03 05:56:38;;;;;;;21.33;15.70;;;;;;;15.35;100.00;101208.63;5019446;28;20109;-72
2023/11/03 05:59:04;;;;;;;25.92;16.33;;;;;;;15.10;100.00;101164.91;5019456;28;20076;-72
2023/11/03 06:01:33;;;;;;;28.80;16.90;;;;;;;14.66;100.00;101130.22;5015497;28;20038;-72
2023/11/03 06:03:59;;;;;;;31.33;18.42;;;;;;;15.18;100.00;101198.84;5007697;28;20032;-71
2023/11/03 06:06:26;;;;;;;34.50;19.50;;;;;;;15.15;100.00;101191.22;5008316;28;20433;-72
2023/11/03 06:08:51;;;;;;;31.83;19.80;;;;;;;15.08;100.00;101146.16;5013847;28;20030;-73
2023/11/03 06:11:17;;;;;;;44.88;25.58;;;;;;;14.69;100.00;101086.66;5015280;28;20543;-71
2023/11/03 06:13:42;;;;;;;39.78;22.48;;;;;;;15.04;100.00;101149.69;5006165;28;20581;-73
2023/11/03 06:16:08;;;;;;;45.08;26.15;;;;;;;15.16;100.00;101151.06;5007881;28;20512;-71
2023/11/03 06:18:33;;;;;;;47.60;25.05;;;;;;;14.92;100.00;101091.13;5008010;28;20042;-72
2023/11/03 06:20:59;;;;;;;45.78;25.10;;;;;;;15.22;100.00;101113.31;5006674;28;20095;-73
2023/11/03 06:23:25;;;;;;;54.63;26.35;;;;;;;15.20;100.00;101111.69;5007900;28;20504;-72
2023/11/03 06:25:51;;;;;;;44.95;24.40;;;;;;;15.06;100.00;101073.66;5007918;28;20030;-71
2023/11/03 06:28:16;;;;;;;48.33;26.27;;;;;;;15.25;100.00;101089.34;5006139;28;20030;-72
2023/11/03 06:30:42;;;;;;;50.88;26.55;;;;;;;15.39;100.00;101129.03;5006242;28;20544;-72
2023/11/03 06:33:08;;;;;;;55.05;27.90;;;;;;;15.28;100.00;101114.84;5007816;28;20026;-72
2023/11/03 06:35:34;;;;;;;57.60;28.50;;;;;;;15.47;100.00;101121.16;5005993;28;20508;-72
2023/11/03 06:37:59;;;;;;;52.15;27.85;;;;;;;15.20;100.00;101078.38;5008181;28;20042;-72
2023/11/03 06:40:25;;;;;;;56.35;28.73;;;;;;;15.32;100.00;101095.94;5006307;28;20030;-74
2023/11/03 06:42:50;;;;;;;61.17;29.15;;;;;;;15.55;100.00;101153.38;5008022;28;20031;-70
2023/11/03 06:45:17;;;;;;;71.35;31.88;;;;;;;15.41;100.00;101140.09;5007165;28;20037;-71
2023/11/03 06:47:42;;;;;;;74.35;32.15;;;;;;;15.36;100.00;101129.13;5007962;28;20105;-72
2023/11/03 06:50:09;;;;;;;80.40;33.70;;;;;;;15.34;100.00;101123.22;5007903;28;20030;-72
2023/11/03 06:52:35;;;;;;;81.15;34.60;;;;;;;15.36;100.00;101126.56;5004874;28;20543;-72
2023/11/03 06:55:01;;;;;;;83.80;33.53;;;;;;;14.77;100.00;101038.63;5007565;28;20030;-73
2023/11/03 06:57:26;;;;;;;93.38;34.38;;;;;;;14.94;100.00;101071.44;5007050;28;21071;-71
2023/11/03 06:59:51;;;;;;;93.63;33.28;;;;;;;15.35;100.00;101139.44;5007268;28;20113;-73
2023/11/03 07:02:17;;;;;;;90.88;34.08;;;;;;;14.90;100.00;101061.31;5007377;28;20415;-74
2023/11/03 07:04:43;;;;;;;79.97;31.70;;;;;;;15.23;100.00;101106.47;5007542;28;20034;-73
2023/11/03 07:07:09;;;;;;;78.05;31.60;;;;;;;15.26;100.00;101086.72;5007498;28;23426;-74
2023/11/03 07:09:34;;;;;;;80.55;32.92;;;;;;;15.29;100.00;101084.06;5007676;28;20025;-74
2023/11/03 07:12:00;;;;;;;84.32;34.05;;;;;;;14.91;100.00;101020.31;5010485;28;20033;-74
2023/11/03 07:14:29;;;;;;;82.57;32.72;;;;;;;15.26;100.00;101067.94;5017508;28;20055;-74
2023/11/03 07:16:56;;;;;;;72.68;31.75;;;;;;;15.29;100.00;101073.00;5018293;28;20409;-74
2023/11/03 07:19:24;;;;;;;78.30;30.67;;;;;;;15.46;100.00;101124.59;5010244;28;20064;-73
2023/11/03 07:21:51;;;;;;;75.85;31.58;;;;;;;15.09;100.00;101080.41;5010728;28;20068;-73
2023/11/03 07:24:17;;;;;;;75.95;31.58;;;;;;;15.23;100.00;101114.16;5020008;28;20554;-73
2023/11/03 07:26:43;;;;;;;77.13;30.92;;;;;;;15.32;100.00;101113.88;5023316;28;20029;-73
2023/11/03 07:29:09;;;;;;;80.72;32.15;;;;;;;15.13;100.00;101066.63;5010941;28;20036;-74
2023/11/03 07:31:36;;;;;;;73.82;31.13;;;;;;;15.56;100.00;101142.25;5019706;28;20038;-73
2023/11/03 07:34:01;;;;;;;72.35;29.85;;;;;;;15.10;100.00;101082.06;5019811;28;20049;-71
2023/11/03 07:36:26;;;;;;;68.97;30.35;;;;;;;15.45;100.00;101094.75;5016922;28;20116;-72
2023/11/03 07:38:52;;;;;;;67.40;30.23;;;;;;;15.91;100.00;101164.25;5010656;28;20201;-71
2023/11/03 07:41:18;;;;;;;63.85;28.73;;;;;;;15.77;100.00;101140.75;5018210;28;20107;-72
2023/11/03 07:43:43;;;;;;;67.85;30.23;;;;;;;16.03;100.00;101169.00;5011016;28;20411;-72
2023/11/03 07:46:10;;;;;;;64.45;30.90;;;;;;;15.40;100.00;101089.72;5018395;28;20025;-72
2023/11/03 07:48:36;;;;;;;67.18;30.95;;;;;;;15.61;100.00;101136.97;5013002;28;20097;-71
2023/11/03 07:51:02;;;;;;;60.78;29.20;;;;;;;15.80;100.00;101163.75;5011366;28;20032;-72
2023/11/03 07:53:27;;;;;;;67.05;31.13;;;;;;;15.53;100.00;101155.13;5019196;28;20033;-71
2023/11/03 07:55:54;;;;;;;60.45;30.15;;;;;;;15.32;100.00;101108.75;5020914;28;20124;-73
2023/11/03 07:58:20;;;;;;;64.72;31.08;;;;;;;15.68;100.00;101170.97;5020534;28;20175;-72
2023/11/03 08:00:48;;;;;;;61.03;30.05;;;;;;;15.35;100.00;101106.94;5019844;28;20105;-74
2023/11/03 08:03:13;;;;;;;56.83;30.17;;;;;;;15.48;100.00;101116.00;5014988;28;20037;-74
2023/11/03 08:05:39;;;;;;;61.42;30.13;;;;;;;15.86;100.00;101140.47;5009781;28;20026;-72
2023/11/03 08:08:04;;;;;;;55.28;29.40;;;;;;;16.33;100.00;101175.72;5010848;28;20047;-72
2023/11/03 08:10:30;;;;;;;52.83;29.13;;;;;;;16.37;100.00;101161.91;5010964;28;20499;-72
2023/11/03 08:12:58;;;;;;;53.25;28.40;;;;;;;16.54;100.00;101168.25;5009929;28;20048;-72
2023/11/03 08:15:23;;;;;;;53.83;28.55;;;;;;;16.71;100.00;101182.22;5021450;28;20037;-72
2023/11/03 08:17:49;;;;;;;60.15;29.00;;;;;;;16.75;100.00;101188.06;5016640;28;20029;-72
2023/11/03 08:20:15;;;;;;;56.33;30.08;;;;;;;16.27;100.00;101126.31;5024652;28;20029;-73
2023/11/03 08:22:47;;;;;;;56.45;28.52;;;;;;;16.79;100.00;101195.63;5018079;28;20033;-72
2023/11/03 08:25:12;;;;;;;47.80;26.73;;;;;;;16.71;100.00;101182.22;5021462;28;20040;-72
2023/11/03 08:27:38;;;;;;;49.95;27.08;;;;;;;16.54;100.00;101116.91;5020433;28;20049;-72
2023/11/03 08:30:08;;;;;;;49.40;26.80;;;;;;;16.63;100.00;101149.97;5021651;28;20030;-72
2023/11/03 08:32:35;;;;;;;53.20;27.70;;;;;;;16.89;100.00;101206.44;5010271;28;20040;-72
2023/11/03 08:35:04;;;;;;;51.33;27.73;;;;;;;16.61;100.00;101201.38;5017427;28;20029;-72
2023/11/03 08:37:30;;;;;;;47.13;26.85;;;;;;;16.70;100.00;101213.09;5009497;28;20032;-72
2023/11/03 08:39:55;;;;;;;50.38;26.55;;;;;;;16.80;100.00;101217.84;5008783;28;20034;-73
2023/11/03 08:42:21;;;;;;;46.97;25.52;;;;;;;16.60;100.00;101191.16;5017509;28;20421;-73
2023/11/03 08:44:47;;;;;;;46.13;26.25;;;;;;;16.86;100.00;101230.50;5020195;28;20041;-73
2023/11/03 08:47:13;;;;;;;50.92;26.05;;;;;;;16.46;100.00;101201.81;5009302;28;20034;-73
2023/11/03 08:49:38;;;;;;;43.90;26.23;;;;;;;16.63;100.00;101227.00;5020107;28;20030;-73
2023/11/03 08:52:04;;;;;;;46.85;25.17;;;;;;;16.54;100.00;101194.75;5009682;28;20026;-73
2023/11/03 08:54:29;;;;;;;42.95;25.52;;;;;;;16.66;100.00;101203.81;5008737;28;20164;-73
2023/11/03 08:56:55;;;;;;;41.67;25.40;;;;;;;16.93;100.00;101239.69;5009102;28;20535;-72
2023/11/03 08:59:20;;;;;;;39.15;24.98;;;;;;;16.83;100.00;101201.50;5018114;28;20034;-73
2023/11/03 09:01:46;;;;;;;46.55;25.98;;;;;;;17.13;100.00;101244.97;5010992;28;20514;-72
2023/11/03 09:04:11;;;;;;;44.20;25.73;;;;;;;16.60;100.00;101179.16;5009235;28;20033;-73
2023/11/03 09:06:37;;;;;;;45.50;25.67;;;;;;;16.86;100.00;101197.09;5018645;28;20034;-72
2023/11/03 09:09:04;;;;;;;40.75;25.00;;;;;;;17.00;100.00;101246.28;5010116;28;20039;-72
2023/11/03 09:11:30;;;;;;;40.65;24.98;;;;;;;16.97;100.00;101266.09;5008401;28;20041;-72
2023/11/03 09:13:56;;;;;;;38.75;25.25;;;;;;;17.13;100.00;101252.66;5015132;28;20068;-72
2023/11/03 09:16:22;;;;;;;38.33;24.15;;;;;;;16.71;100.00;101197.63;5010097;28;20033;-72
2023/11/03 09:18:52;;;;;;;36.60;23.55;;;;;;;16.87;100.00;101209.06;5018568;28;21132;-73
2023/11/03 09:21:18;;;;;;;33.78;23.27;;;;;;;16.86;100.00;101185.97;5020394;28;20116;-73
2023/11/03 09:23:44;;;;;;;36.67;23.02;;;;;;;17.31;100.00;101238.38;5013112;28;20028;-72
2023/11/03 09:26:09;;;;;;;34.85;22.60;;;;;;;17.45;100.00;101245.59;5009372;28;20037;-73
2023/11/03 09:28:36;;;;;;;35.38;22.42;;;;;;;17.38;100.00;101236.41;5017772;28;20132;-73
2023/11/03 09:31:02;;;;;;;35.20;22.45;;;;;;;17.79;100.00;101246.03;5008467;28;20080;-72
2023/11/03 09:33:28;;;;;;;35.38;22.63;;;;;;;17.83;100.00;101256.16;5008903;28;20128;-75
2023/11/03 09:35:54;;;;;;;38.05;23.52;;;;;;;17.70;100.00;101408.47;5005651;28;20125;-73
2023/11/03 09:38:20;;;;;;;29.73;21.17;;;;;;;17.94;100.00;101397.34;5014981;28;20125;-73
2023/11/03 09:40:46;;;;;;;39.67;22.58;;;;;;;17.70;100.00;101349.28;5019026;28;20113;-73
2023/11/03 09:43:13;;;;;;;37.03;22.13;;;;;;;17.68;100.00;101384.53;5014893;28;20025;-72
2023/11/03 09:45:42;;;;;;;34.30;23.23;;;;;;;17.61;100.00;101358.16;5010095;28;20048;-73
2023/11/03 09:48:08;;;;;;;36.65;22.95;;;;;;;17.70;100.00;101357.00;5008495;28;20521;-72
2023/11/03 09:50:37;;;;;;;36.22;22.38;;;;;;;17.91;100.00;101351.94;5010072;28;20060;-72
2023/11/03 09:53:15;;;;;;;33.65;21.85;;;;;;;17.70;100.00;101342.44;5004874;28;20484;-73
2023/11/03 09:55:42;;;;;;;36.15;21.92;;;;;;;17.69;100.00;101338.16;5018311;28;20105;-73
2023/11/03 09:58:07;;;;;;;35.13;21.92;;;;;;;17.98;100.00;101366.28;5007336;28;20057;-72
2023/11/03 10:00:33;;;;;;;31.50;20.75;;;;;;;18.13;100.00;101355.41;5018199;28;20119;-72
2023/11/03 10:02:59;;;;;;;33.33;21.17;;;;;;;17.99;100.00;101326.78;5016940;28;20033;-72
2023/11/03 10:05:26;;;;;;;28.85;19.67;;;;;;;18.06;100.00;101348.81;5014769;28;20044;-72
2023/11/03 10:08:04;;;;;;;29.92;20.27;;;;;;;18.09;100.00;101342.72;5020342;28;20037;-74
2023/11/03 10:10:34;;;;;;;30.33;20.40;;;;;;;18.07;100.00;101277.56;5016197;28;20044;-71
2023/11/03 10:13:09;;;;;;;30.38;20.40;;;;;;;18.29;100.00;101311.91;5020943;28;20485;-72
2023/11/03 10:15:38;;;;;;;31.02;19.77;;;;;;;17.94;100.00;101248.91;5023045;28;20025;-71
2023/11/03 10:18:04;;;;;;;32.15;19.80;;;;;;;18.24;100.00;101310.41;5003344;28;20040;-71
2023/11/03 10:20:30;;;;;;;27.77;19.02;;;;;;;18.05;100.00;101297.38;5014344;28;20030;-72
2023/11/03 10:22:56;;;;;;;28.45;19.35;;;;;;;18.04;100.00;101316.31;5007679;28;20045;-72
2023/11/03 10:25:21;;;;;;;29.35;19.90;;;;;;;18.09;100.00;101314.38;5007639;28;20030;-72
2023/11/03 10:27:50;;;;;;;30.35;19.33;;;;;;;18.22;100.00;101325.94;5008691;28;20427;-72
2023/11/03 10:30:16;;;;;;;27.60;18.23;;;;;;;17.86;100.00;101266.38;5007983;28;20087;-71
2023/11/03 10:32:43;;;;;;;26.95;17.15;;;;;;;18.08;100.00;101292.13;4323004;28;10001009;-71
2023/11/03 10:35:11;;;;;;;26.80;17.65;;;;;;;18.72;100.00;101319.66;5022417;28;20049;-72
2023/11/03 10:37:38;;;;;;;26.63;17.70;;;;;;;19.13;100.00;101618.88;5020969;28;20052;-71
2023/11/03 10:40:05;;;;;;;25.08;16.80;;;;;;;18.67;100.00;101553.50;5022038;28;20448;-71
2023/11/03 10:42:32;;;;;;;21.73;15.55;;;;;;;18.60;100.00;101588.09;5023667;28;20050;-70
2023/11/03 10:44:58;;;;;;;19.73;15.20;;;;;;;18.80;100.00;101595.13;5022334;28;20056;-70
2023/11/03 10:47:29;;;;;;;21.38;16.52;;;;;;;18.71;100.00;101557.66;5026664;28;20044;-69
2023/11/03 10:50:05;;;;;;;23.63;15.82;;;;;;;18.90;100.00;101589.59;5010863;28;20116;-73
2023/11/03 10:52:41;;;;;;;21.77;15.73;;;;;;;19.08;100.00;101569.19;5026364;28;20045;-77
2023/11/03 10:55:10;;;;;;;21.23;15.32;;;;;;;19.46;100.00;101579.75;5027777;28;20040;-72
2023/11/03 10:57:36;;;;;;;19.90;15.20;;;;;;;18.87;100.00;101503.81;5026855;28;20436;-70
2023/11/03 11:00:22;;;;;;;22.25;16.23;;;;;;;18.82;100.00;101478.19;5030001;28;20156;-72
2023/11/03 11:03:06;;;;;;;23.38;15.98;;;;;;;19.57;100.00;101523.41;5026884;28;20041;-73